Time;durP1;ratioP1;P1;durP2;ratioP2;P2;SDS_P1;SDS_P2;PMS_P1;PMS_P2;Temp;Humidity;BMP_temperature;BMP_pressure;BME280_temperature;BME280_humidity;BME280_pressure;Samples;Min_cycle;Max_cycle;Signal;HPM_P1;HPM_P2
2022/10/22 00:02:18;;;;;;;5.30;2.50;;;;;;;12.34;94.20;100828.50;5029425;28;20064;-78
2022/10/22 00:04:44;;;;;;;6.40;2.45;;;;;;;12.32;93.74;100834.66;5031183;28;20048;-78
2022/10/22 00:07:09;;;;;;;5.70;2.50;;;;;;;12.27;94.19;100833.06;5031714;28;20029;-78
2022/10/22 00:09:34;;;;;;;4.85;2.45;;;;;;;12.25;94.19;100832.28;5030623;28;20030;-78
2022/10/22 00:12:00;;;;;;;5.18;2.50;;;;;;;12.23;94.21;100834.06;5030141;28;20025;-78
2022/10/22 00:14:25;;;;;;;4.93;2.55;;;;;;;12.21;94.45;100835.88;5031044;28;20045;-78
2022/10/22 00:16:50;;;;;;;3.80;2.47;;;;;;;12.22;94.91;100824.53;5032593;28;20452;-78
2022/10/22 00:19:16;;;;;;;4.22;2.45;;;;;;;12.22;94.94;100824.53;5031680;28;20075;-78
2022/10/22 00:21:41;;;;;;;5.55;3.08;;;;;;;12.23;94.96;100823.63;5032035;28;20030;-78
2022/10/22 00:24:06;;;;;;;5.95;2.70;;;;;;;12.23;95.42;100821.03;5030952;28;20038;-78
2022/10/22 00:26:32;;;;;;;4.20;2.35;;;;;;;12.20;95.17;100826.34;5031169;28;20084;-78
2022/10/22 00:28:57;;;;;;;5.00;2.53;;;;;;;12.20;95.39;100821.13;5030385;28;20385;-78
2022/10/22 00:31:22;;;;;;;3.70;2.33;;;;;;;12.17;95.56;100821.22;5030199;28;20079;-78
2022/10/22 00:33:48;;;;;;;3.20;2.25;;;;;;;12.18;95.38;100822.09;5031966;28;20036;-78
2022/10/22 00:36:15;;;;;;;5.72;2.60;;;;;;;12.16;95.57;100822.13;5031421;28;20033;-78
2022/10/22 00:38:41;;;;;;;5.45;2.58;;;;;;;12.15;95.60;100828.25;5031363;28;20036;-78
2022/10/22 00:41:07;;;;;;;5.50;2.60;;;;;;;12.15;95.78;100828.25;5030738;28;20025;-78
2022/10/22 00:43:32;;;;;;;5.10;2.70;;;;;;;12.14;95.86;100823.91;5031874;28;20025;-78
2022/10/22 00:45:58;;;;;;;5.97;2.60;;;;;;;12.15;96.15;100833.44;5031428;28;20113;-78
2022/10/22 00:48:32;;;;;;;4.80;2.53;;;;;;;12.16;96.07;100831.72;5031885;28;20041;-78
2022/10/22 00:51:07;;;;;;;9.88;3.05;;;;;;;12.17;96.31;100830.81;5030884;28;20021;-78
2022/10/22 00:53:37;;;;;;;6.95;2.60;;;;;;;12.16;96.31;100832.56;5029345;28;20033;-78
2022/10/22 00:56:02;;;;;;;5.28;2.70;;;;;;;12.15;96.33;100833.44;5032114;28;20022;-78
2022/10/22 00:58:32;;;;;;;6.20;2.70;;;;;;;12.14;96.30;100831.75;5031771;28;20504;-79
2022/10/22 01:00:58;;;;;;;5.22;3.00;;;;;;;12.15;96.42;100820.41;5036916;28;20026;-78
2022/10/22 01:03:24;;;;;;;5.43;3.20;;;;;;;12.13;96.18;100824.81;5031960;28;20029;-78
2022/10/22 01:05:56;;;;;;;6.45;3.25;;;;;;;12.13;96.37;100824.81;5024979;28;20042;-78
2022/10/22 01:08:29;;;;;;;6.55;3.20;;;;;;;12.12;96.62;100829.19;5029480;28;20029;-78
2022/10/22 01:11:16;;;;;;;5.95;3.13;;;;;;;12.12;96.85;100828.38;5030980;28;20025;-78
2022/10/22 01:13:47;;;;;;;6.28;3.20;;;;;;;12.12;96.74;100830.97;5034991;28;20028;-78
2022/10/22 01:16:32;;;;;;;6.00;3.03;;;;;;;12.12;96.92;100828.38;5034549;28;20392;-78
2022/10/22 01:19:10;;;;;;;6.43;3.25;;;;;;;12.13;97.17;100824.81;5034800;28;20424;-78
2022/10/22 01:21:42;;;;;;;6.28;2.95;;;;;;;12.13;96.96;100814.38;5031812;28;20463;-78
2022/10/22 01:24:19;;;;;;;6.80;3.25;;;;;;;12.12;96.65;100816.16;5035952;28;20040;-78
2022/10/22 01:26:59;;;;;;;7.43;3.55;;;;;;;12.11;96.75;100816.22;5029005;28;20366;-79
2022/10/22 01:29:42;;;;;;;5.18;3.47;;;;;;;12.11;96.66;100816.22;5034099;28;20048;-78
2022/10/22 01:32:13;;;;;;;11.68;3.53;;;;;;;12.09;96.63;100824.06;5031145;28;20048;-78
2022/10/22 01:34:42;;;;;;;8.35;3.40;;;;;;;12.07;96.58;100819.81;5031352;28;20035;-78
2022/10/22 01:37:11;;;;;;;8.35;3.40;;;;;;;12.06;96.92;100818.13;5030271;28;20100;-78
2022/10/22 01:39:39;;;;;;;5.60;3.78;;;;;;;12.06;97.01;100818.13;5031256;28;20037;-78
2022/10/22 01:42:04;;;;;;;5.82;3.72;;;;;;;12.06;96.83;100815.50;5034311;28;20029;-78
2022/10/22 01:44:32;;;;;;;5.35;3.42;;;;;;;12.06;96.94;100818.13;5033319;28;20026;-78
2022/10/22 01:47:14;;;;;;;8.82;3.80;;;;;;;12.05;97.01;100821.63;5033589;28;20037;-78
2022/10/22 01:50:10;;;;;;;6.95;3.75;;;;;;;12.05;96.84;100819.84;5032271;28;20468;-78
2022/10/22 01:52:52;;;;;;;5.25;3.88;;;;;;;12.03;96.89;100813.88;5037128;28;20488;-78
2022/10/22 01:55:34;;;;;;;9.02;4.50;;;;;;;12.03;96.94;100820.81;5032787;28;20048;-78
2022/10/22 01:58:12;;;;;;;6.57;4.55;;;;;;;12.02;96.84;100816.50;5032745;28;20364;-78
2022/10/22 02:00:43;;;;;;;7.30;4.45;;;;;;;12.01;96.87;100818.28;5020480;28;20033;-78
2022/10/22 02:03:34;;;;;;;9.07;4.30;;;;;;;12.01;96.98;100814.78;5034176;28;20037;-78
2022/10/22 02:06:08;;;;;;;5.60;3.88;;;;;;;12.01;97.11;100814.78;5033587;28;20087;-78
2022/10/22 02:08:35;;;;;;;6.75;4.10;;;;;;;12.00;97.22;100811.34;5033480;28;20025;-78
2022/10/22 02:11:01;;;;;;;7.78;4.10;;;;;;;11.98;97.08;100814.00;5033167;28;20104;-78
2022/10/22 02:13:34;;;;;;;7.78;3.70;;;;;;;11.96;97.21;100815.75;5034427;28;20045;-78
2022/10/22 02:16:01;;;;;;;8.80;4.28;;;;;;;11.96;97.33;100820.13;5026665;28;20025;-78
2022/10/22 02:18:31;;;;;;;6.70;4.20;;;;;;;11.94;97.03;100816.72;5020235;28;20029;-78
2022/10/22 02:20:58;;;;;;;8.80;3.67;;;;;;;11.93;97.47;100818.50;5034086;28;20456;-78
2022/10/22 02:23:23;;;;;;;9.95;3.95;;;;;;;11.93;97.58;100823.69;5028024;28;20120;-78
2022/10/22 02:25:56;;;;;;;5.75;3.78;;;;;;;11.92;97.37;100815.91;5033990;28;20138;-78
2022/10/22 02:28:31;;;;;;;5.78;3.85;;;;;;;11.89;97.52;100816.88;5033084;28;20029;-78
2022/10/22 02:31:05;;;;;;;9.65;4.10;;;;;;;11.89;97.79;100816.00;5032822;28;20388;-78
2022/10/22 02:33:35;;;;;;;6.75;3.70;;;;;;;11.89;97.70;100821.22;5032987;28;20104;-78
2022/10/22 02:36:01;;;;;;;8.73;3.90;;;;;;;11.86;97.72;100816.97;5033318;28;20021;-78
2022/10/22 02:38:28;;;;;;;6.85;4.20;;;;;;;11.85;97.93;100825.69;5032298;28;20128;-78
2022/10/22 02:40:54;;;;;;;6.68;3.65;;;;;;;11.85;97.97;100815.25;5033407;28;20486;-78
2022/10/22 02:43:19;;;;;;;6.22;4.03;;;;;;;11.85;97.84;100820.47;5034679;28;20067;-78
2022/10/22 02:45:45;;;;;;;7.05;3.70;;;;;;;11.85;98.02;100815.25;5031948;28;20481;-78
2022/10/22 02:48:11;;;;;;;6.82;3.53;;;;;;;11.86;97.94;100811.75;5032814;28;20109;-78
2022/10/22 02:50:36;;;;;;;9.68;3.97;;;;;;;11.88;98.01;100822.13;5033061;28;20108;-78
2022/10/22 02:53:02;;;;;;;6.68;3.70;;;;;;;11.87;98.09;100815.22;5029655;28;20741;-78
2022/10/22 02:55:28;;;;;;;7.15;4.00;;;;;;;11.88;98.00;100816.91;5032472;28;20033;-78
2022/10/22 02:57:53;;;;;;;7.88;3.40;;;;;;;11.86;98.33;100822.19;5032564;28;20531;-78
2022/10/22 03:00:18;;;;;;;7.88;4.28;;;;;;;11.87;98.20;100825.66;5033475;28;20033;-78
2022/10/22 03:02:43;;;;;;;9.27;3.90;;;;;;;11.86;98.32;100827.38;5033253;28;20036;-78
2022/10/22 03:05:09;;;;;;;7.20;3.72;;;;;;;11.85;98.10;100828.28;5031006;28;20064;-78
2022/10/22 03:07:34;;;;;;;8.15;3.85;;;;;;;11.84;98.39;100829.19;5032109;28;20035;-78
2022/10/22 03:09:59;;;;;;;7.25;3.58;;;;;;;11.82;98.18;100826.66;5033555;28;20028;-78
2022/10/22 03:12:25;;;;;;;5.85;3.75;;;;;;;11.81;98.04;100830.16;5032819;28;20072;-78
2022/10/22 03:14:50;;;;;;;7.18;3.75;;;;;;;11.80;98.38;100835.38;5032370;28;20437;-78
2022/10/22 03:17:15;;;;;;;9.35;3.83;;;;;;;11.78;98.42;100832.00;5032391;28;20017;-78
2022/10/22 03:19:41;;;;;;;6.35;3.53;;;;;;;11.77;98.03;100835.50;5027527;28;20029;-78
2022/10/22 03:22:13;;;;;;;8.70;3.42;;;;;;;11.74;98.30;100836.44;5032843;28;20037;-78
2022/10/22 03:24:43;;;;;;;8.02;3.53;;;;;;;11.72;98.36;100840.00;5031729;28;20037;-78
2022/10/22 03:27:11;;;;;;;9.75;3.58;;;;;;;11.72;98.50;100838.25;5020804;28;20057;-78
2022/10/22 03:29:39;;;;;;;10.65;3.30;;;;;;;11.72;98.67;100835.63;5031333;28;20033;-78
2022/10/22 03:32:04;;;;;;;6.22;3.20;;;;;;;11.72;98.59;100840.00;5031722;28;20358;-79
2022/10/22 03:34:29;;;;;;;11.77;3.20;;;;;;;11.71;98.86;100839.13;5025138;28;20045;-78
2022/10/22 03:36:58;;;;;;;4.63;3.22;;;;;;;11.71;98.74;100835.69;5031780;28;20035;-78
2022/10/22 03:39:23;;;;;;;6.25;3.10;;;;;;;11.69;98.49;100847.00;5029636;28;20476;-78
2022/10/22 03:41:51;;;;;;;5.45;3.00;;;;;;;11.69;98.81;100841.81;5030663;28;20160;-78
2022/10/22 03:44:17;;;;;;;6.85;3.20;;;;;;;11.69;99.02;100848.78;5030778;28;20477;-78
2022/10/22 03:46:43;;;;;;;8.82;3.20;;;;;;;11.67;99.05;100848.81;5030851;28;20427;-78
2022/10/22 03:49:08;;;;;;;6.57;3.20;;;;;;;11.69;99.13;100849.63;5029784;28;20120;-78
2022/10/22 03:51:34;;;;;;;7.95;3.05;;;;;;;11.69;99.68;100851.38;5030553;28;20029;-78
2022/10/22 03:54:00;;;;;;;7.20;3.30;;;;;;;11.69;99.67;100857.44;5029542;28;20025;-78
2022/10/22 03:56:25;;;;;;;8.13;3.22;;;;;;;11.68;99.68;100866.16;5028646;28;20373;-78
2022/10/22 03:58:50;;;;;;;8.88;3.10;;;;;;;11.69;99.61;100873.06;5030449;28;20025;-78
2022/10/22 04:01:15;;;;;;;8.80;3.30;;;;;;;11.69;99.36;100867.84;5030508;28;20079;-78
2022/10/22 04:03:41;;;;;;;5.35;2.90;;;;;;;11.69;99.43;100867.84;5029690;28;20387;-79
2022/10/22 04:06:09;;;;;;;5.38;2.88;;;;;;;11.69;99.63;100870.47;5027182;28;20037;-78
2022/10/22 04:08:34;;;;;;;5.63;2.92;;;;;;;11.71;99.99;100869.56;5029903;28;20083;-78
2022/10/22 04:11:00;;;;;;;7.63;3.03;;;;;;;11.70;99.99;100876.50;5029164;28;20037;-78
2022/10/22 04:13:26;;;;;;;7.47;2.95;;;;;;;11.71;100.00;100867.81;5030206;28;20026;-78
2022/10/22 04:15:51;;;;;;;4.88;2.88;;;;;;;11.70;99.96;100873.91;5029565;28;20083;-78
2022/10/22 04:18:18;;;;;;;8.73;3.08;;;;;;;11.71;100.00;100880.84;5030583;28;20037;-78
2022/10/22 04:20:43;;;;;;;7.43;3.03;;;;;;;11.72;100.00;100882.53;5029975;28;20428;-78
2022/10/22 04:23:08;;;;;;;7.18;2.92;;;;;;;11.73;100.00;100878.19;5015898;28;20469;-78
2022/10/22 04:25:33;;;;;;;6.75;2.90;;;;;;;11.73;100.00;100886.03;5030032;28;21230;-78
2022/10/22 04:27:59;;;;;;;7.22;3.00;;;;;;;11.71;99.98;100880.00;5030021;28;20025;-78
2022/10/22 04:30:24;;;;;;;5.35;2.40;;;;;;;11.71;100.00;100880.84;5029731;28;20358;-78
2022/10/22 04:32:49;;;;;;;4.80;2.60;;;;;;;11.71;99.86;100880.00;5029378;28;20030;-78
2022/10/22 04:35:15;;;;;;;7.43;3.20;;;;;;;11.70;100.00;100884.34;5030641;28;20083;-78
2022/10/22 04:37:40;;;;;;;5.07;2.40;;;;;;;11.71;100.00;100882.59;5030374;28;20033;-78
2022/10/22 04:40:06;;;;;;;4.88;2.50;;;;;;;11.71;100.00;100883.44;5030892;28;20036;-78
2022/10/22 04:42:31;;;;;;;5.60;2.42;;;;;;;11.71;100.00;100887.81;5026049;28;20026;-78
2022/10/22 04:44:56;;;;;;;7.47;2.67;;;;;;;11.71;100.00;100880.84;5024472;28;20033;-78
2022/10/22 04:47:22;;;;;;;6.13;2.67;;;;;;;11.71;99.98;100886.03;5032645;28;20500;-78
2022/10/22 04:49:47;;;;;;;4.10;2.33;;;;;;;11.69;99.84;100883.50;5034301;28;20037;-78
2022/10/22 04:52:12;;;;;;;4.65;2.50;;;;;;;11.68;99.90;100884.41;5035466;28;20052;-78
2022/10/22 04:54:37;;;;;;;8.43;2.70;;;;;;;11.66;100.00;100883.59;5033072;28;20025;-78
2022/10/22 04:57:03;;;;;;;5.05;2.50;;;;;;;11.66;100.00;100890.56;5031842;28;20025;-78
2022/10/22 04:59:28;;;;;;;6.65;2.90;;;;;;;11.64;100.00;100889.75;5030633;28;20025;-78
2022/10/22 05:01:54;;;;;;;6.57;2.70;;;;;;;11.63;99.89;100888.03;5030315;28;20025;-78
2022/10/22 05:04:19;;;;;;;3.67;2.38;;;;;;;11.63;99.83;100908.88;5033440;28;20049;-78
2022/10/22 05:06:45;;;;;;;6.25;2.47;;;;;;;11.61;99.80;100902.88;5034978;28;20041;-78
2022/10/22 05:09:13;;;;;;;6.40;2.53;;;;;;;11.61;99.99;100906.34;5034106;28;20064;-78
2022/10/22 05:11:40;;;;;;;7.13;2.60;;;;;;;11.61;100.00;100898.53;5031476;28;20516;-78
2022/10/22 05:14:08;;;;;;;6.60;2.92;;;;;;;11.61;100.00;100903.72;5031035;28;20047;-78
2022/10/22 05:16:34;;;;;;;5.65;2.60;;;;;;;11.62;100.00;100901.97;5027727;28;20477;-78
2022/10/22 05:19:01;;;;;;;4.65;2.33;;;;;;;11.61;100.00;100901.13;5034110;28;20030;-78
2022/10/22 05:21:26;;;;;;;6.35;2.28;;;;;;;11.61;100.00;100901.13;5034570;28;20021;-78
2022/10/22 05:23:53;;;;;;;6.32;2.55;;;;;;;11.62;100.00;100900.19;5034841;28;20083;-78
2022/10/22 05:26:20;;;;;;;6.10;2.22;;;;;;;11.64;100.00;100903.63;5033632;28;20028;-78
2022/10/22 05:28:47;;;;;;;5.57;2.22;;;;;;;11.66;100.00;100901.81;5017523;28;20041;-78
2022/10/22 05:31:14;;;;;;;6.43;2.30;;;;;;;11.68;100.00;100902.63;5034640;28;20037;-78
2022/10/22 05:33:40;;;;;;;5.45;2.40;;;;;;;11.70;100.00;100899.97;5046166;28;20033;-78
2022/10/22 05:36:08;;;;;;;6.57;2.50;;;;;;;11.74;100.00;100899.00;5034195;28;20427;-78
2022/10/22 05:38:34;;;;;;;6.57;2.67;;;;;;;11.76;100.00;100906.78;5025048;28;20037;-78
2022/10/22 05:41:09;;;;;;;5.47;2.15;;;;;;;11.77;100.00;100906.72;5029493;28;20104;-78
2022/10/22 05:43:35;;;;;;;6.35;2.50;;;;;;;11.79;100.00;100893.63;5034400;28;20029;-78
2022/10/22 05:46:06;;;;;;;6.38;2.60;;;;;;;11.82;100.00;100909.19;5034634;28;20033;-78
2022/10/22 05:48:31;;;;;;;5.68;2.33;;;;;;;11.82;100.00;100907.44;5029753;28;20163;-78
2022/10/22 05:51:03;;;;;;;6.45;2.53;;;;;;;11.84;100.00;100912.59;5034825;28;20087;-78
2022/10/22 05:53:29;;;;;;;8.25;2.53;;;;;;;11.84;100.00;100916.09;5033110;28;20465;-78
2022/10/22 05:55:54;;;;;;;6.35;2.33;;;;;;;11.83;100.00;100918.72;5034026;28;20025;-78
2022/10/22 05:58:19;;;;;;;3.42;2.17;;;;;;;11.84;100.00;100917.81;5034118;28;20345;-78
2022/10/22 06:00:44;;;;;;;6.18;2.30;;;;;;;11.84;100.00;100930.84;5030891;28;20030;-78
2022/10/22 06:03:10;;;;;;;6.32;2.30;;;;;;;11.83;100.00;100936.97;5031743;28;20025;-78
2022/10/22 06:05:36;;;;;;;5.40;2.40;;;;;;;11.81;100.00;100933.53;5027350;28;20463;-78
2022/10/22 06:08:02;;;;;;;4.03;2.20;;;;;;;11.80;100.00;100935.31;5035440;28;20057;-78
2022/10/22 06:10:27;;;;;;;6.70;2.47;;;;;;;11.80;100.00;100937.91;5034671;28;20546;-78
2022/10/22 06:12:53;;;;;;;4.85;2.50;;;;;;;11.79;100.00;100941.41;5033973;28;20025;-78
2022/10/22 06:15:19;;;;;;;5.78;2.20;;;;;;;11.79;100.00;100945.75;5033800;28;20031;-78
2022/10/22 06:17:45;;;;;;;5.97;2.50;;;;;;;11.79;100.00;100945.75;5030178;28;20021;-78
2022/10/22 06:20:11;;;;;;;7.05;2.40;;;;;;;11.79;100.00;100958.78;5028222;28;20472;-78
2022/10/22 06:22:37;;;;;;;6.18;2.40;;;;;;;11.80;100.00;100957.91;5034346;28;20030;-78
2022/10/22 06:25:03;;;;;;;5.72;2.50;;;;;;;11.81;100.00;100959.59;5032980;28;20040;-78
2022/10/22 06:27:28;;;;;;;4.15;2.15;;;;;;;11.80;100.00;100963.97;5032761;28;20029;-78
2022/10/22 06:29:54;;;;;;;5.65;2.60;;;;;;;11.80;100.00;100969.19;5030894;28;20033;-78
2022/10/22 06:32:19;;;;;;;7.38;2.40;;;;;;;11.80;100.00;100965.72;5034028;28;20468;-78
2022/10/22 06:34:45;;;;;;;5.70;2.70;;;;;;;11.81;100.00;100978.72;5031351;28;20033;-78
2022/10/22 06:37:12;;;;;;;5.00;1.92;;;;;;;11.83;100.00;100981.28;5033023;28;20025;-78
2022/10/22 06:39:38;;;;;;;8.52;2.10;;;;;;;11.84;100.00;100975.16;5032025;28;20325;-78
2022/10/22 06:42:03;;;;;;;5.75;2.15;;;;;;;11.86;100.00;100991.63;5043235;28;20037;-78
2022/10/22 06:44:28;;;;;;;6.85;2.30;;;;;;;11.89;100.00;100982.84;5032146;28;20055;-78
2022/10/22 06:46:53;;;;;;;5.13;1.92;;;;;;;11.92;99.96;101001.88;5033581;28;20064;-78
2022/10/22 06:49:19;;;;;;;6.05;2.25;;;;;;;11.95;100.00;101008.75;5033266;28;20047;-78
2022/10/22 06:51:48;;;;;;;2.97;1.77;;;;;;;11.96;99.79;101003.47;5032538;28;20431;-78
2022/10/22 06:54:13;;;;;;;7.88;2.25;;;;;;;11.98;99.75;101013.88;5031986;28;20470;-78
2022/10/22 06:56:38;;;;;;;5.15;2.40;;;;;;;11.99;99.89;101011.25;5025318;28;20042;-78
2022/10/22 06:59:03;;;;;;;6.43;1.83;;;;;;;12.01;99.55;101012.97;5033418;28;20128;-78
2022/10/22 07:01:31;;;;;;;8.18;2.20;;;;;;;12.02;99.42;101017.28;5033040;28;20029;-78
2022/10/22 07:03:57;;;;;;;8.65;2.20;;;;;;;12.03;99.49;101022.47;5032412;28;20478;-78
2022/10/22 07:06:23;;;;;;;5.82;2.20;;;;;;;12.07;99.42;101026.69;5031838;28;20037;-78
2022/10/22 07:08:50;;;;;;;6.47;2.20;;;;;;;12.09;99.49;101031.88;5032287;28;20032;-78
2022/10/22 07:11:18;;;;;;;6.05;2.13;;;;;;;12.11;99.13;101030.06;5029419;28;20030;-78
2022/10/22 07:13:44;;;;;;;5.70;1.90;;;;;;;12.12;98.90;101031.78;5032983;28;20037;-78
2022/10/22 07:16:10;;;;;;;7.63;1.92;;;;;;;12.13;99.04;101034.34;5032588;28;20022;-78
2022/10/22 07:18:37;;;;;;;6.97;2.30;;;;;;;12.16;99.02;101042.97;5047217;28;20029;-78
2022/10/22 07:21:03;;;;;;;6.32;2.00;;;;;;;12.16;98.86;101040.34;5030774;28;20026;-78
2022/10/22 07:23:29;;;;;;;10.45;2.20;;;;;;;12.18;98.57;101049.00;5032966;28;20052;-78
2022/10/22 07:25:54;;;;;;;6.47;2.00;;;;;;;12.21;98.85;101052.38;5031716;28;20105;-78
2022/10/22 07:28:19;;;;;;;7.00;2.17;;;;;;;12.26;98.67;101058.31;5023396;28;20156;-78
2022/10/22 07:30:45;;;;;;;6.93;2.25;;;;;;;12.33;98.61;101052.88;5031637;28;20036;-78
2022/10/22 07:33:10;;;;;;;8.00;2.10;;;;;;;12.39;98.77;101066.59;5033610;28;20030;-78
2022/10/22 07:35:37;;;;;;;5.00;2.22;;;;;;;12.44;98.56;101054.28;5032303;28;20021;-78
2022/10/22 07:38:03;;;;;;;7.05;2.00;;;;;;;12.48;98.47;101054.19;5031705;28;20387;-78
2022/10/22 07:40:28;;;;;;;8.93;2.10;;;;;;;12.49;98.22;101061.97;5032297;28;20525;-78
2022/10/22 07:42:54;;;;;;;8.05;2.15;;;;;;;12.51;98.19;101069.75;5031404;28;20388;-78
2022/10/22 07:45:19;;;;;;;6.30;2.15;;;;;;;12.51;98.00;101068.00;5030743;28;20032;-78
2022/10/22 07:47:46;;;;;;;7.47;2.35;;;;;;;12.51;97.64;101073.22;5034363;28;20041;-78
2022/10/22 07:50:11;;;;;;;6.93;2.10;;;;;;;12.52;97.30;101077.53;5046724;28;20043;-78
2022/10/22 07:52:36;;;;;;;4.15;2.15;;;;;;;12.54;97.62;101080.13;5030105;28;20465;-78
2022/10/22 07:55:02;;;;;;;8.77;2.53;;;;;;;12.57;97.63;101086.09;5032110;28;21811;-78
2022/10/22 07:57:28;;;;;;;4.90;2.00;;;;;;;12.61;97.62;101086.84;5031063;28;20029;-78
2022/10/22 07:59:55;;;;;;;7.32;2.33;;;;;;;12.66;97.79;101089.31;5028931;28;20090;-77
2022/10/22 08:02:20;;;;;;;6.80;2.30;;;;;;;12.71;97.75;101087.41;5029199;28;20440;-78
2022/10/22 08:04:45;;;;;;;6.72;2.15;;;;;;;12.74;98.28;101088.16;5032970;28;20098;-78
2022/10/22 08:07:11;;;;;;;6.70;1.88;;;;;;;12.81;97.73;101088.00;5032682;28;20025;-78
2022/10/22 08:09:36;;;;;;;9.27;2.47;;;;;;;12.84;97.81;101088.75;5031150;28;20037;-78
2022/10/22 08:12:01;;;;;;;6.28;2.08;;;;;;;12.92;97.76;101098.09;5031464;28;20532;-78
2022/10/22 08:14:26;;;;;;;8.57;2.70;;;;;;;12.96;97.33;101099.72;5029861;28;20033;-78
2022/10/22 08:16:52;;;;;;;8.30;1.90;;;;;;;13.00;97.31;101103.91;5027533;28;20025;-78
2022/10/22 08:19:19;;;;;;;6.72;2.15;;;;;;;13.02;96.83;101104.72;5026535;28;20041;-78
2022/10/22 08:21:46;;;;;;;5.28;2.20;;;;;;;13.04;96.30;101108.16;5029530;28;20384;-78
2022/10/22 08:24:11;;;;;;;6.32;1.92;;;;;;;13.05;96.14;101112.47;5033009;28;20025;-78
2022/10/22 08:26:37;;;;;;;7.07;2.10;;;;;;;13.07;96.42;101110.69;5033802;28;20029;-78
2022/10/22 08:29:02;;;;;;;6.65;2.15;;;;;;;13.11;96.46;101106.19;5036022;28;20091;-78
2022/10/22 08:31:28;;;;;;;6.13;2.05;;;;;;;13.14;96.85;101106.97;5034803;28;20044;-78
2022/10/22 08:33:53;;;;;;;5.13;2.13;;;;;;;13.21;96.68;101116.31;5033563;28;20036;-78
2022/10/22 08:36:18;;;;;;;5.20;2.20;;;;;;;13.26;96.06;101117.91;5033443;28;20025;-78
2022/10/22 08:38:43;;;;;;;7.25;2.05;;;;;;;13.31;96.69;101122.09;5029022;28;20029;-78
2022/10/22 08:41:22;;;;;;;7.47;2.58;;;;;;;13.36;96.30;101128.03;5033462;28;20035;-78
2022/10/22 08:44:20;;;;;;;8.00;2.03;;;;;;;13.41;95.40;101138.34;5034466;28;20354;-78
2022/10/22 08:47:17;;;;;;;5.45;2.58;;;;;;;13.47;95.62;101134.69;5034383;28;20124;-78
2022/10/22 08:49:42;;;;;;;10.82;2.53;;;;;;;13.54;95.02;101151.00;5031144;28;20026;-78
2022/10/22 08:52:17;;;;;;;9.55;1.98;;;;;;;13.61;94.57;101155.13;5032955;28;20175;-78
2022/10/22 08:54:51;;;;;;;7.68;2.20;;;;;;;13.70;94.63;101162.66;5029894;28;20474;-78
2022/10/22 08:57:41;;;;;;;8.32;2.20;;;;;;;13.76;93.61;101162.47;5020762;28;20037;-76
2022/10/22 09:00:13;;;;;;;7.30;2.25;;;;;;;13.85;93.44;101168.28;5030755;28;20033;-76
2022/10/22 09:03:16;;;;;;;5.65;1.92;;;;;;;13.92;93.15;101164.53;5027477;28;20037;-76
2022/10/22 09:06:20;;;;;;;8.57;2.10;;;;;;;13.95;92.09;101162.66;5023723;28;21458;-79
2022/10/22 09:08:46;;;;;;;11.35;2.75;;;;;;;14.00;92.99;101165.16;4986188;28;20038;-76
2022/10/22 09:11:11;;;;;;;8.10;1.80;;;;;;;14.02;91.78;101173.78;5020245;28;20077;-76
2022/10/22 09:13:37;;;;;;;8.00;1.70;;;;;;;14.05;91.66;101170.22;5028558;28;20168;-76
2022/10/22 09:16:18;;;;;;;8.27;1.88;;;;;;;14.08;91.11;101165.72;5028352;28;20036;-78
2022/10/22 09:19:08;;;;;;;7.00;1.85;;;;;;;14.13;91.30;101169.94;5028626;28;20036;-79
2022/10/22 09:21:52;;;;;;;6.43;1.40;;;;;;;14.17;90.41;101177.63;5029435;28;20104;-78
2022/10/22 09:24:29;;;;;;;7.70;1.52;;;;;;;14.21;90.21;101183.59;5027842;28;20031;-78
2022/10/22 09:26:55;;;;;;;9.40;1.90;;;;;;;14.26;89.70;101179.06;5028471;28;20033;-78
2022/10/22 09:29:27;;;;;;;8.05;1.70;;;;;;;14.29;89.44;101192.03;5026279;28;20021;-78
2022/10/22 09:31:52;;;;;;;7.03;1.77;;;;;;;14.32;89.28;101189.31;5026379;28;20033;-79
2022/10/22 09:34:21;;;;;;;7.47;1.70;;;;;;;14.32;89.26;101199.78;5026978;28;20380;-78
2022/10/22 09:36:46;;;;;;;8.07;1.60;;;;;;;14.30;88.64;101193.75;5027707;28;20116;-78
2022/10/22 09:39:24;;;;;;;6.43;1.60;;;;;;;14.31;89.32;101200.69;5027852;28;20476;-78
2022/10/22 09:41:49;;;;;;;8.93;1.88;;;;;;;14.30;88.54;101208.59;5028065;28;20595;-78
2022/10/22 09:44:16;;;;;;;7.07;1.38;;;;;;;14.30;88.18;101204.22;5026938;28;20022;-78
2022/10/22 09:46:44;;;;;;;4.35;1.58;;;;;;;14.31;88.65;101219.00;5027545;28;20488;-78
2022/10/22 09:49:13;;;;;;;6.80;1.60;;;;;;;14.34;88.15;101223.28;5025714;28;20120;-78
2022/10/22 09:51:41;;;;;;;4.88;1.30;;;;;;;14.38;88.58;101215.25;5025055;28;20029;-78
2022/10/22 09:54:23;;;;;;;3.47;1.20;;;;;;;14.46;89.03;101219.38;5027578;28;20480;-78
2022/10/22 09:56:53;;;;;;;;;;;;;;;14.50;89.77;101218.34;5028756;28;20033;-78
2022/10/22 09:59:26;;;;;;;4.55;1.50;;;;;;;14.52;88.23;101222.63;5027618;28;19925;-78
2022/10/22 10:01:57;;;;;;;5.93;1.33;;;;;;;14.56;88.13;101232.06;5026579;28;20087;-78
2022/10/22 10:04:23;;;;;;;5.00;1.20;;;;;;;14.61;87.25;101234.53;5027290;28;20524;-78
2022/10/22 10:06:54;;;;;;;7.18;1.27;;;;;;;14.65;87.24;101243.97;5027434;28;20045;-78
2022/10/22 10:09:23;;;;;;;6.53;1.48;;;;;;;14.67;86.93;101244.78;5026789;28;20030;-78
2022/10/22 10:12:15;;;;;;;5.60;1.15;;;;;;;14.71;87.01;101251.63;5026087;28;20492;-78
2022/10/22 10:15:12;;;;;;;5.05;1.30;;;;;;;14.76;87.41;101254.09;5027282;28;20021;-78
2022/10/22 10:18:11;;;;;;;4.55;1.23;;;;;;;14.79;87.34;101255.75;5024062;28;20572;-78
2022/10/22 10:20:57;;;;;;;3.88;1.38;;;;;;;14.78;87.14;101261.88;5027345;28;20025;-78
2022/10/22 10:23:35;;;;;;;8.88;1.50;;;;;;;14.77;86.36;101268.03;5027368;28;20064;-77
2022/10/22 10:26:17;;;;;;;7.82;1.80;;;;;;;14.76;86.15;101268.94;5025163;28;20040;-78
2022/10/22 10:28:50;;;;;;;5.78;1.40;;;;;;;14.75;86.06;101273.34;5026893;28;20057;-78
2022/10/22 10:31:27;;;;;;;7.82;1.42;;;;;;;14.78;86.02;101274.97;5027968;28;20030;-77
2022/10/22 10:34:08;;;;;;;5.85;1.67;;;;;;;14.83;86.28;101280.91;5028313;28;20060;-78
2022/10/22 10:36:58;;;;;;;9.27;1.90;;;;;;;14.90;86.01;101281.53;5026879;28;20441;-78
2022/10/22 10:39:38;;;;;;;4.75;1.35;;;;;;;14.98;86.43;101282.97;5027646;28;20094;-78
2022/10/22 10:42:25;;;;;;;7.45;1.85;;;;;;;15.03;85.79;101280.16;5028170;28;20044;-78
2022/10/22 10:45:15;;;;;;;5.65;1.35;;;;;;;15.08;85.61;101280.88;5028327;28;20033;-78
2022/10/22 10:48:16;;;;;;;5.68;1.80;;;;;;;15.14;86.46;101283.22;5027161;28;20033;-78
2022/10/22 10:51:03;;;;;;;6.22;2.08;;;;;;;15.14;86.09;101279.78;4995297;28;20041;-78
2022/10/22 10:53:50;;;;;;;9.55;2.20;;;;;;;15.13;85.79;101284.16;5026604;28;20061;-78
2022/10/22 10:56:31;;;;;;;8.52;2.05;;;;;;;15.14;84.45;101291.09;5028187;28;20029;-78
2022/10/22 10:59:18;;;;;;;9.30;1.83;;;;;;;15.13;85.10;101283.31;5026080;28;20030;-78
2022/10/22 11:02:08;;;;;;;5.50;1.38;;;;;;;15.10;84.49;101286.91;5027441;28;20029;-78
2022/10/22 11:04:47;;;;;;;6.15;1.52;;;;;;;15.11;84.79;101287.75;5027283;28;20085;-78
2022/10/22 11:07:19;;;;;;;6.03;1.70;;;;;;;15.12;84.37;101276.34;5026064;28;20037;-78
2022/10/22 11:09:58;;;;;;;8.57;2.42;;;;;;;15.17;84.88;101282.28;5027589;28;20159;-78
2022/10/22 11:12:30;;;;;;;6.53;2.33;;;;;;;15.21;84.86;101283.84;5028516;28;20104;-77
2022/10/22 11:14:58;;;;;;;5.40;2.00;;;;;;;15.22;84.13;101290.81;5026954;28;20025;-78
2022/10/22 11:17:34;;;;;;;10.65;2.13;;;;;;;15.27;84.68;101291.50;5027220;28;20033;-78
2022/10/22 11:20:05;;;;;;;7.35;1.77;;;;;;;15.32;82.88;101286.94;5027312;28;20036;-78
2022/10/22 11:22:37;;;;;;;6.53;2.15;;;;;;;15.32;83.26;101289.56;5026936;28;20117;-78
2022/10/22 11:25:11;;;;;;;5.80;1.70;;;;;;;15.40;84.68;101277.91;5027301;28;20032;-78
2022/10/22 11:27:43;;;;;;;6.50;2.22;;;;;;;15.49;83.35;101280.19;5027641;28;20029;-77
2022/10/22 11:30:13;;;;;;;;;;;;;;;15.61;85.35;101289.34;5027159;28;20037;-78
2022/10/22 11:32:41;;;;;;;10.02;2.67;;;;;;;15.72;82.73;101283.63;5027669;28;19979;-78
2022/10/22 11:35:14;;;;;;;6.28;1.70;;;;;;;15.83;82.15;101288.44;5027129;28;20024;-78
2022/10/22 11:37:43;;;;;;;5.78;1.85;;;;;;;15.93;82.20;101280.16;5023947;28;20029;-78